Truckee, California
Current Conditions -  °F | °C
As of 7:50 AM on Saturday 22 Nov 2014 (Local Time) from KTRK Reporting Station
Drizzle Drizzle  
Wind Chill: 38°   Ceiling: 3000
Heat Index: 45°   Visibility: 7mi
Dew Point: 43°   Wind: 14mph
Humidity: 93%   Direction: 230°SW
Pressure: 29.99"   Gusts: 25mph
Location:  39.33°N, 120.21°W
Report Text: KTRK 221550Z 23012G22KT 7SM DZ BKN030 OVC060 07/06 A2999 RMK NOSPECI
Loading
Personal Weather Stations






























Interactive Weather Map New forecast layout! Learn more

10-Day Weather Forecast

Advertisements
Track Severe Weather on mobile